Osservazioni METAR vicini

 

LIRI - Pontecagnano, Italia
Distanza dalla stazione: SSE 18 Km
Dati ricevuti: 17/08/2022 18:50
Dati obsoleti
Sereno
Sereno
 Vento da OSO
Vento: OSO 7 Km/h
Temperatura: 29 °C
Indice di calore: 33 °C
P.to rugiada: 24 °C
Umidità: 74%
Barometro: 1013 hPa
Riepilogo: Sereno
Visibilità: superiore a 10 Km
2022/08/17 16:50 LIRI 171650Z 25004KT 230V300 CAVOK 29/24 Q1013
LIRN - Napoli/Capodichino, Italia
Distanza dalla stazione: ONO 47 Km
Dati ricevuti: 18/08/2022 07:20
Sereno
Sereno
 Vento da ENE
Vento: ENE 7 Km/h
Temperatura: 24 °C
P.to rugiada: 20 °C
Umidità: 78%
Barometro: 1012 hPa
Riepilogo: Sereno
Visibilità: superiore a 10 Km
2022/08/18 05:20 LIRN 180520Z 06004KT 020V080 CAVOK 24/20 Q1012 NOSIG
 
LIRT - Trevico, Italia
Distanza dalla stazione: NE 44 Km
Dati ricevuti: 17/08/2022 19:55
Dati obsoleti
Sereno
Sereno
 Vento da ONO
Vento: ONO 11 Km/h
Temperatura: 25 °C
P.to rugiada: 17 °C
Umidità: 61%
Barometro: 1019 hPa
Riepilogo: Sereno
Visibilità: superiore a 10 Km
2022/08/17 17:55 LIRT 171755Z 29006KT CAVOK 25/17 Q1019
LIQC - Isola di Capri, Italia
Distanza dalla stazione: OSO 58 Km
Dati ricevuti: 18/08/2022 06:55
Sereno
Sereno
 Vento da calmo
Vento: Calma
Temperatura: 27 °C
Indice di calore: 29 °C
P.to rugiada: 20 °C
Umidità: 66%
Barometro: 1012 hPa
Riepilogo: Sereno
Visibilità: superiore a 10 Km
2022/08/18 04:55 LIQC 180455Z 00000KT CAVOK 27/20 Q1012 RMK SKC QUK 1 QUL 0 VIS MAR 15 KM VIS MIN 9999
 
LIRM - Grazzanise, Italia
Distanza dalla stazione: ONO 71 Km
Dati ricevuti: 18/08/2022 06:55
Sereno
Sereno
 Vento da N
Vento: N 11 Km/h
Temperatura: 23 °C
P.to rugiada: 21 °C
Umidità: 89%
Barometro: 1012 hPa
Riepilogo: Sereno
Visibilità: superiore a 10 Km
2022/08/18 04:55 LIRM 180455Z 35006KT CAVOK 23/21 Q1012